Time;durP1;ratioP1;P1;durP2;ratioP2;P2;SDS_P1;SDS_P2;PMS_P1;PMS_P2;Temp;Humidity;BMP_temperature;BMP_pressure;BME280_temperature;BME280_humidity;BME280_pressure;Samples;Min_cycle;Max_cycle;Signal;HPM_P1;HPM_P2
2023/08/19 00:00:50;;;;;;;4.50;2.83;;;28.40;69.10;;;;;;5072786;28;20224;-70
2023/08/19 00:03:17;;;;;;;6.47;3.03;;;28.30;68.70;;;;;;5073420;28;20239;-70
2023/08/19 00:05:44;;;;;;;4.20;2.43;;;28.40;68.50;;;;;;5073744;28;20208;-70
2023/08/19 00:08:13;;;;;;;3.83;2.80;;;28.30;68.50;;;;;;5071642;28;20221;-71
2023/08/19 00:10:40;;;;;;;3.77;3.10;;;28.30;68.50;;;;;;5084673;28;20195;-71
2023/08/19 00:13:07;;;;;;;3.20;2.90;;;28.30;68.90;;;;;;5077433;28;20207;-70
2023/08/19 00:15:34;;;;;;;5.03;3.13;;;28.30;69.50;;;;;;5072674;28;20255;-69
2023/08/19 00:18:02;;;;;;;6.57;3.00;;;28.30;69.70;;;;;;5072750;28;20664;-70
2023/08/19 00:20:29;;;;;;;5.23;3.40;;;28.20;69.90;;;;;;5072693;28;20648;-69
2023/08/19 00:22:56;;;;;;;5.00;2.93;;;28.20;70.10;;;;;;5072603;28;20213;-70
2023/08/19 00:25:25;;;;;;;4.10;2.90;;;28.20;70.10;;;;;;5073281;28;20712;-70
2023/08/19 00:27:53;;;;;;;3.57;2.87;;;28.10;70.10;;;;;;5072907;28;20218;-70
2023/08/19 00:30:20;;;;;;;5.23;3.50;;;28.10;70.10;;;;;;5072279;28;20196;-69
2023/08/19 00:32:47;;;;;;;6.00;3.10;;;28.10;70.10;;;;;;5071294;28;20230;-70
2023/08/19 00:35:15;;;;;;;3.93;2.93;;;28.00;70.00;;;;;;5072498;28;20212;-71
2023/08/19 00:37:42;;;;;;;4.37;2.80;;;28.10;70.10;;;;;;5072714;28;20222;-69
2023/08/19 00:40:12;;;;;;;4.83;2.90;;;28.10;70.20;;;;;;5072523;28;20594;-71
2023/08/19 00:42:41;;;;;;;5.10;3.03;;;28.00;70.10;;;;;;5076046;28;20216;-70
2023/08/19 00:45:09;;;;;;;4.97;3.20;;;28.00;70.10;;;;;;5092732;28;20226;-70
2023/08/19 00:47:36;;;;;;;4.17;3.10;;;28.00;70.70;;;;;;5092552;28;20305;-70
2023/08/19 00:50:04;;;;;;;6.07;3.83;;;27.90;70.90;;;;;;5085818;28;20257;-70
2023/08/19 00:52:31;;;;;;;4.57;3.07;;;27.90;70.90;;;;;;5072256;28;20291;-70
2023/08/19 00:54:58;;;;;;;3.77;3.30;;;27.80;71.70;;;;;;5072478;28;20212;-70
2023/08/19 00:57:24;;;;;;;4.20;3.17;;;27.90;72.10;;;;;;5080871;28;20811;-71
2023/08/19 00:59:53;;;;;;;4.53;3.30;;;27.80;71.10;;;;;;5073251;28;20196;-70
2023/08/19 01:02:20;;;;;;;6.73;3.17;;;27.80;71.40;;;;;;5071385;28;20229;-71
2023/08/19 01:04:47;;;;;;;4.17;3.20;;;27.70;71.40;;;;;;5071775;28;20199;-70
2023/08/19 01:07:23;;;;;;;5.50;3.20;;;27.70;71.60;;;;;;5072170;28;20219;-70
2023/08/19 01:10:03;;;;;;;4.17;3.30;;;27.70;72.10;;;;;;5074757;28;20226;-70
2023/08/19 01:12:39;;;;;;;3.73;3.33;;;27.70;72.60;;;;;;5082325;28;20275;-71
2023/08/19 01:15:12;;;;;;;5.27;3.03;;;27.70;73.00;;;;;;5072483;28;20340;-70
2023/08/19 01:17:41;;;;;;;5.93;3.10;;;27.60;73.00;;;;;;5071995;28;20198;-70
2023/08/19 01:20:10;;;;;;;6.67;3.73;;;27.50;72.80;;;;;;5070595;28;20213;-71
2023/08/19 01:22:44;;;;;;;4.10;3.20;;;27.40;72.70;;;;;;5071295;28;20226;-71
2023/08/19 01:25:13;;;;;;;5.27;3.50;;;27.40;73.20;;;;;;5071918;28;20197;-71
2023/08/19 01:27:40;;;;;;;4.17;3.30;;;27.30;73.20;;;;;;5071591;28;20789;-70
2023/08/19 01:30:08;;;;;;;5.00;3.10;;;27.30;73.40;;;;;;5071550;28;20203;-70
2023/08/19 01:32:35;;;;;;;5.90;3.37;;;27.30;73.80;;;;;;5071183;28;20280;-71
2023/08/19 01:35:02;;;;;;;3.40;3.10;;;27.30;73.90;;;;;;5071693;28;20204;-71
2023/08/19 01:37:34;;;;;;;4.97;3.13;;;27.20;74.00;;;;;;5071671;28;20221;-70
2023/08/19 01:40:02;;;;;;;5.27;3.10;;;27.20;74.10;;;;;;5075348;28;20189;-71
2023/08/19 01:42:33;;;;;;;5.13;3.30;;;27.20;74.40;;;;;;5079502;28;20318;-71
2023/08/19 01:45:00;;;;;;;4.27;3.13;;;27.20;74.70;;;;;;5091759;28;20237;-71
2023/08/19 01:47:27;;;;;;;4.80;2.80;;;27.10;74.60;;;;;;5091719;28;20248;-70
2023/08/19 01:49:53;;;;;;;4.53;3.30;;;27.10;75.40;;;;;;5091386;28;20664;-71
2023/08/19 01:52:21;;;;;;;4.30;3.07;;;27.00;74.60;;;;;;5078653;28;20204;-71
2023/08/19 01:54:48;;;;;;;3.33;2.90;;;27.00;74.80;;;;;;5071001;28;20207;-70
2023/08/19 01:57:15;;;;;;;3.53;3.23;;;27.00;74.90;;;;;;5071315;28;20328;-70
2023/08/19 01:59:43;;;;;;;3.80;3.20;;;26.90;75.90;;;;;;5071082;28;20201;-69
2023/08/19 02:02:09;;;;;;;4.80;3.00;;;26.90;75.20;;;;;;5071584;28;20222;-70
2023/08/19 02:04:36;;;;;;;3.67;3.13;;;26.90;75.50;;;;;;5078431;28;20205;-69
2023/08/19 02:07:03;;;;;;;3.13;2.83;;;26.80;75.40;;;;;;5091369;28;20213;-71
2023/08/19 02:09:30;;;;;;;4.20;3.30;;;26.80;75.40;;;;;;5091405;28;20251;-70
2023/08/19 02:11:58;;;;;;;4.53;3.00;;;26.80;76.20;;;;;;5091087;28;20207;-69
2023/08/19 02:14:25;;;;;;;4.27;3.43;;;26.80;75.50;;;;;;5091223;28;20213;-69
2023/08/19 02:16:53;;;;;;;5.13;3.60;;;26.70;75.50;;;;;;5091277;28;20638;-70
2023/08/19 02:19:19;;;;;;;3.43;3.13;;;26.60;75.50;;;;;;5091585;28;20207;-71
2023/08/19 02:21:46;;;;;;;4.90;3.30;;;26.60;75.70;;;;;;5090757;28;20224;-70
2023/08/19 02:24:13;;;;;;;3.67;3.30;;;26.50;75.70;;;;;;5091174;28;20678;-70
2023/08/19 02:26:39;;;;;;;3.90;2.90;;;26.50;75.90;;;;;;5090952;28;20213;-70
2023/08/19 02:29:06;;;;;;;5.20;3.10;;;26.50;75.90;;;;;;5055335;28;20205;-70
2023/08/19 02:31:33;;;;;;;6.63;3.97;;;26.40;76.00;;;;;;5090894;28;20250;-70
2023/08/19 02:34:01;;;;;;;5.97;3.33;;;26.50;76.10;;;;;;5090935;28;20701;-69
2023/08/19 02:36:28;;;;;;;4.03;3.30;;;26.40;76.10;;;;;;5090902;28;20628;-71
2023/08/19 02:38:55;;;;;;;4.37;3.50;;;26.40;76.10;;;;;;5091170;28;20206;-71
2023/08/19 02:41:22;;;;;;;5.70;3.63;;;26.40;76.10;;;;;;5090896;28;20189;-70
2023/08/19 02:43:50;;;;;;;4.10;3.50;;;26.40;76.20;;;;;;5078521;28;20576;-70
2023/08/19 02:46:16;;;;;;;5.50;3.30;;;26.30;76.30;;;;;;5071453;28;20229;-70
2023/08/19 02:48:43;;;;;;;3.43;2.90;;;26.30;76.50;;;;;;5071275;28;20220;-70
2023/08/19 02:51:11;;;;;;;4.77;3.30;;;26.20;76.60;;;;;;5087693;28;20229;-70
2023/08/19 02:53:38;;;;;;;3.57;3.27;;;26.20;76.80;;;;;;5085895;28;20201;-81
2023/08/19 02:56:06;;;;;;;4.43;3.30;;;26.20;77.50;;;;;;5078011;28;20213;-73
2023/08/19 02:58:33;;;;;;;5.97;3.33;;;26.20;77.10;;;;;;5080636;28;20232;-71
2023/08/19 03:01:00;;;;;;;5.43;3.60;;;26.20;77.10;;;;;;5094549;28;20277;-71
2023/08/19 03:03:28;;;;;;;4.80;3.40;;;26.10;77.20;;;;;;5074651;28;20236;-70
2023/08/19 03:05:58;;;;;;;4.10;3.23;;;26.00;77.50;;;;;;5073882;28;20206;-70
2023/08/19 03:08:27;;;;;;;6.33;3.70;;;26.00;77.80;;;;;;5073932;28;20224;-70
2023/08/19 03:10:54;;;;;;;3.97;3.20;;;26.00;77.80;;;;;;5073782;28;20209;-70
2023/08/19 03:13:20;;;;;;;4.30;3.40;;;25.90;77.90;;;;;;5074416;28;20530;-71
2023/08/19 03:15:47;;;;;;;5.27;3.50;;;25.90;78.00;;;;;;5073494;28;20602;-71
2023/08/19 03:18:14;;;;;;;3.33;3.03;;;25.90;78.00;;;;;;5073734;28;20291;-70
2023/08/19 03:20:42;;;;;;;4.83;3.37;;;25.90;78.10;;;;;;5073878;28;20202;-70
2023/08/19 03:23:09;;;;;;;6.60;3.30;;;25.90;78.20;;;;;;5074187;28;20217;-70
2023/08/19 03:25:37;;;;;;;4.47;3.60;;;25.90;78.20;;;;;;5073754;28;20247;-70
2023/08/19 03:28:04;;;;;;;4.13;3.40;;;25.90;78.30;;;;;;5073723;28;20244;-70
2023/08/19 03:30:31;;;;;;;3.63;3.27;;;25.80;78.40;;;;;;5073371;28;20209;-71
2023/08/19 03:32:58;;;;;;;5.47;3.50;;;25.80;78.40;;;;;;5077462;28;20642;-70
2023/08/19 03:35:24;;;;;;;6.10;3.40;;;25.80;78.40;;;;;;5093449;28;20227;-70
2023/08/19 03:37:51;;;;;;;4.83;3.30;;;25.80;78.60;;;;;;5094087;28;20214;-70
2023/08/19 03:40:18;;;;;;;7.23;3.50;;;25.80;78.60;;;;;;5093555;28;20723;-71
2023/08/19 03:42:46;;;;;;;5.27;3.27;;;25.80;78.60;;;;;;5080858;28;20225;-70
2023/08/19 03:45:13;;;;;;;4.83;3.10;;;25.80;78.80;;;;;;5082171;28;20231;-70
2023/08/19 03:47:40;;;;;;;3.97;3.17;;;25.80;78.80;;;;;;5093671;28;20205;-70
2023/08/19 03:50:08;;;;;;;4.70;3.80;;;25.80;78.90;;;;;;5093642;28;20212;-70
2023/08/19 03:52:35;;;;;;;3.67;3.00;;;25.80;78.90;;;;;;5056183;28;20715;-70
2023/08/19 03:55:02;;;;;;;5.87;3.53;;;25.70;78.80;;;;;;5077447;28;20666;-70
2023/08/19 03:57:28;;;;;;;4.47;3.60;;;25.70;78.80;;;;;;5073028;28;20216;-70
2023/08/19 03:59:57;;;;;;;5.17;3.30;;;25.70;78.80;;;;;;5073240;28;20208;-70
2023/08/19 04:02:24;;;;;;;4.00;3.30;;;25.70;78.80;;;;;;5073138;28;20221;-70
2023/08/19 04:04:58;;;;;;;3.77;3.30;;;25.60;78.80;;;;;;5072880;28;20229;-71
2023/08/19 04:07:25;;;;;;;6.30;3.17;;;25.60;79.10;;;;;;5072533;28;20221;-70
2023/08/19 04:09:54;;;;;;;4.00;3.60;;;25.60;78.90;;;;;;5072883;28;20233;-70
2023/08/19 04:12:21;;;;;;;6.40;3.63;;;25.60;79.00;;;;;;5072733;28;20649;-71
2023/08/19 04:14:47;;;;;;;4.57;3.60;;;25.60;79.20;;;;;;5072670;28;20223;-71
2023/08/19 04:17:16;;;;;;;3.67;3.07;;;25.50;79.30;;;;;;5073002;28;20595;-70
2023/08/19 04:19:43;;;;;;;3.40;2.80;;;25.50;80.40;;;;;;5072754;28;20691;-70
2023/08/19 04:22:11;;;;;;;3.53;3.10;;;25.50;79.50;;;;;;5072137;28;20640;-70
2023/08/19 04:24:38;;;;;;;5.53;3.43;;;25.50;79.50;;;;;;5072793;28;20303;-71
2023/08/19 04:27:05;;;;;;;4.83;3.47;;;25.50;79.50;;;;;;5072817;28;20216;-70
2023/08/19 04:29:33;;;;;;;5.47;3.27;;;25.50;79.70;;;;;;5072086;28;20189;-70
2023/08/19 04:32:00;;;;;;;6.77;3.50;;;25.50;79.70;;;;;;5072548;28;20560;-70
2023/08/19 04:34:29;;;;;;;4.03;3.60;;;25.50;80.50;;;;;;5072631;28;20247;-70
2023/08/19 04:36:55;;;;;;;6.30;3.50;;;25.40;79.70;;;;;;5072608;28;20656;-70
2023/08/19 04:39:23;;;;;;;5.93;3.60;;;25.40;79.90;;;;;;5072246;28;20232;-70
2023/08/19 04:41:50;;;;;;;4.73;3.57;;;25.40;79.80;;;;;;5072046;28;20196;-70
2023/08/19 04:44:17;;;;;;;6.33;3.60;;;25.40;79.80;;;;;;5089669;28;20228;-70
2023/08/19 04:46:44;;;;;;;6.40;4.00;;;25.40;79.70;;;;;;5092831;28;20232;-70
2023/08/19 04:49:11;;;;;;;5.83;3.50;;;25.40;80.00;;;;;;5092204;28;20252;-70
2023/08/19 04:51:39;;;;;;;8.17;3.97;;;25.40;79.80;;;;;;5086585;28;20308;-69
2023/08/19 04:54:07;;;;;;;6.73;4.27;;;25.40;80.80;;;;;;5071944;28;20201;-71
2023/08/19 04:56:33;;;;;;;6.27;4.27;;;25.40;80.10;;;;;;5071959;28;20217;-70
2023/08/19 04:59:01;;;;;;;5.47;4.20;;;25.30;79.90;;;;;;5079886;28;20224;-70
2023/08/19 05:01:27;;;;;;;5.20;3.70;;;25.40;80.00;;;;;;5092129;28;20555;-70
2023/08/19 05:03:54;;;;;;;7.13;4.23;;;25.30;80.10;;;;;;5092223;28;20328;-70
2023/08/19 05:06:22;;;;;;;6.80;4.47;;;25.30;80.20;;;;;;5092811;28;20195;-70
2023/08/19 05:08:50;;;;;;;7.67;4.07;;;25.30;80.40;;;;;;5092143;28;20569;-70
2023/08/19 05:11:17;;;;;;;5.73;3.83;;;25.30;81.30;;;;;;5091424;28;20211;-70
2023/08/19 05:13:44;;;;;;;5.17;3.87;;;25.30;81.50;;;;;;5092200;28;20213;-70
2023/08/19 05:16:11;;;;;;;4.00;3.07;;;25.30;80.50;;;;;;5092071;28;20245;-70
2023/08/19 05:18:38;;;;;;;4.70;4.03;;;25.30;80.50;;;;;;5090467;28;20566;-70
2023/08/19 05:21:04;;;;;;;3.57;3.27;;;25.40;80.30;;;;;;5088177;28;20200;-70
2023/08/19 05:23:31;;;;;;;4.40;3.17;;;25.40;80.00;;;;;;5091986;28;20229;-71
2023/08/19 05:25:59;;;;;;;4.20;3.77;;;25.50;80.00;;;;;;5091761;28;20205;-70
2023/08/19 05:28:26;;;;;;;5.23;3.47;;;25.50;79.60;;;;;;5091923;28;20239;-70
2023/08/19 05:30:53;;;;;;;8.63;3.83;;;25.60;79.50;;;;;;5091850;28;20214;-70
2023/08/19 05:33:20;;;;;;;4.70;3.80;;;25.60;79.20;;;;;;5089502;28;20208;-70
2023/08/19 05:35:47;;;;;;;5.60;3.60;;;25.60;79.20;;;;;;5091933;28;20231;-70
2023/08/19 05:38:14;;;;;;;5.07;3.67;;;25.70;79.30;;;;;;5091902;28;20214;-70
2023/08/19 05:40:40;;;;;;;8.63;3.40;;;25.70;79.10;;;;;;5091370;28;20232;-70
2023/08/19 05:43:09;;;;;;;4.50;3.80;;;25.70;79.10;;;;;;5085583;28;20220;-70
2023/08/19 05:45:35;;;;;;;4.20;3.27;;;25.70;78.80;;;;;;5091747;28;20230;-71
2023/08/19 05:48:03;;;;;;;3.73;3.23;;;25.70;79.10;;;;;;5091649;28;20637;-70
2023/08/19 05:50:30;;;;;;;5.13;3.47;;;25.70;79.20;;;;;;5091823;28;20277;-70
2023/08/19 05:52:57;;;;;;;3.63;3.33;;;25.70;79.20;;;;;;5091533;28;20659;-70
2023/08/19 05:55:23;;;;;;;4.90;3.50;;;25.70;79.20;;;;;;5091488;28;20204;-70
2023/08/19 05:57:50;;;;;;;4.87;3.87;;;25.70;79.10;;;;;;5091843;28;20193;-70
2023/08/19 06:00:19;;;;;;;7.17;3.70;;;25.80;78.90;;;;;;5091413;28;20200;-71
2023/08/19 06:02:46;;;;;;;4.70;3.20;;;25.80;78.80;;;;;;5091137;28;20294;-71
2023/08/19 06:05:12;;;;;;;5.43;3.73;;;25.90;78.90;;;;;;5074384;28;20228;-71
2023/08/19 06:07:39;;;;;;;3.90;3.50;;;26.00;78.90;;;;;;5071710;28;20221;-70
2023/08/19 06:10:07;;;;;;;6.17;3.80;;;26.10;78.60;;;;;;5073461;28;20229;-70
2023/08/19 06:12:34;;;;;;;6.53;3.40;;;26.20;78.50;;;;;;5072664;28;20220;-71
2023/08/19 06:15:00;;;;;;;7.27;3.70;;;26.30;78.30;;;;;;5082185;28;20216;-70
2023/08/19 06:17:29;;;;;;;5.10;3.53;;;26.30;78.50;;;;;;5077518;28;20236;-70
2023/08/19 06:19:55;;;;;;;4.03;3.63;;;26.40;78.40;;;;;;5083848;28;20196;-70
2023/08/19 06:22:22;;;;;;;9.13;3.77;;;26.40;79.10;;;;;;5095901;28;20234;-71
2023/08/19 06:24:49;;;;;;;5.43;3.80;;;26.40;78.40;;;;;;5086408;28;20217;-71
2023/08/19 06:27:16;;;;;;;6.10;3.73;;;26.50;78.20;;;;;;5086486;28;20205;-71
2023/08/19 06:29:43;;;;;;;7.53;3.70;;;26.50;78.10;;;;;;5087192;28;20203;-71
2023/08/19 06:32:11;;;;;;;6.23;3.53;;;26.60;77.70;;;;;;5072793;28;20213;-71
2023/08/19 06:34:40;;;;;;;5.83;3.80;;;26.60;77.70;;;;;;5075440;28;20217;-72
2023/08/19 06:37:11;;;;;;;4.97;3.60;;;26.70;77.10;;;;;;5074957;28;20658;-70
2023/08/19 06:39:41;;;;;;;5.23;3.90;;;26.70;76.70;;;;;;5073336;28;20713;-70
2023/08/19 06:42:09;;;;;;;7.83;3.70;;;26.80;76.60;;;;;;5075148;28;20671;-71
2023/08/19 06:44:41;;;;;;;6.20;3.80;;;26.80;76.60;;;;;;5094500;28;20736;-70
2023/08/19 06:47:09;;;;;;;5.43;3.40;;;26.90;76.50;;;;;;5095051;28;20316;-71
2023/08/19 06:49:37;;;;;;;5.17;3.53;;;27.00;76.10;;;;;;5094653;28;20209;-71
2023/08/19 06:52:06;;;;;;;5.07;4.33;;;27.20;75.80;;;;;;5092944;28;20216;-71
2023/08/19 06:54:34;;;;;;;7.00;3.67;;;27.30;75.50;;;;;;5075249;28;20213;-71
2023/08/19 06:57:06;;;;;;;5.17;4.43;;;27.40;75.10;;;;;;5074305;28;20587;-70
2023/08/19 06:59:37;;;;;;;4.93;3.90;;;27.50;74.90;;;;;;5074227;28;20246;-71
2023/08/19 07:02:05;;;;;;;6.60;4.20;;;27.60;75.00;;;;;;5074302;28;20651;-71
2023/08/19 07:04:33;;;;;;;6.87;4.17;;;27.60;75.00;;;;;;5093551;28;20233;-71
2023/08/19 07:07:03;;;;;;;5.27;4.60;;;27.70;75.70;;;;;;5091121;28;20222;-72
2023/08/19 07:09:32;;;;;;;5.47;4.20;;;27.70;74.80;;;;;;5079334;28;20202;-71
2023/08/19 07:12:01;;;;;;;5.60;4.73;;;27.80;74.70;;;;;;5077815;28;20659;-71
2023/08/19 07:14:29;;;;;;;5.00;4.50;;;27.90;74.60;;;;;;5073708;28;20204;-71
2023/08/19 07:17:00;;;;;;;6.00;5.07;;;28.00;74.80;;;;;;5086308;28;20221;-71
2023/08/19 07:19:39;;;;;;;5.97;4.23;;;28.10;75.10;;;;;;5082175;28;20651;-70
2023/08/19 07:22:07;;;;;;;5.33;4.67;;;28.20;74.60;;;;;;5077099;28;20287;-70
2023/08/19 07:24:36;;;;;;;5.33;4.83;;;28.30;74.20;;;;;;5091992;28;20222;-70
2023/08/19 07:27:05;;;;;;;10.53;5.30;;;28.40;73.90;;;;;;5088724;28;20305;-71
2023/08/19 07:29:34;;;;;;;6.67;4.67;;;28.50;74.20;;;;;;5074591;28;20232;-71
2023/08/19 07:32:03;;;;;;;7.07;4.60;;;28.60;73.60;;;;;;5076928;28;20196;-70
2023/08/19 07:34:30;;;;;;;5.17;4.57;;;28.60;73.10;;;;;;5087431;28;20224;-71
2023/08/19 07:36:57;;;;;;;5.47;4.97;;;28.70;72.90;;;;;;5075158;28;20263;-71
2023/08/19 07:39:25;;;;;;;5.63;5.00;;;28.80;72.40;;;;;;5074493;28;20234;-71
2023/08/19 07:41:53;;;;;;;7.97;4.80;;;28.90;72.60;;;;;;5074507;28;20650;-71
2023/08/19 07:44:20;;;;;;;6.83;4.67;;;29.00;72.90;;;;;;5091525;28;20231;-70
2023/08/19 07:46:47;;;;;;;6.57;5.03;;;29.10;71.30;;;;;;5094352;28;20573;-70
2023/08/19 07:49:14;;;;;;;5.97;4.70;;;29.10;70.90;;;;;;5094488;28;20200;-70
2023/08/19 07:51:41;;;;;;;5.57;4.97;;;29.20;71.00;;;;;;5080767;28;20236;-72
2023/08/19 07:54:08;;;;;;;7.23;5.10;;;29.30;71.00;;;;;;5073518;28;20217;-69
2023/08/19 07:56:34;;;;;;;5.67;4.97;;;29.40;70.00;;;;;;5073695;28;20220;-71
2023/08/19 07:59:03;;;;;;;6.37;5.50;;;29.50;69.80;;;;;;5073971;28;20205;-71
2023/08/19 08:01:30;;;;;;;5.33;4.87;;;29.60;70.00;;;;;;5074147;28;20693;-70
2023/08/19 08:03:57;;;;;;;5.33;4.83;;;29.70;69.60;;;;;;5073457;28;20220;-71
2023/08/19 08:06:24;;;;;;;6.67;5.23;;;29.80;69.20;;;;;;5073629;28;20306;-71
2023/08/19 08:08:50;;;;;;;5.20;4.70;;;29.90;69.30;;;;;;5073725;28;20220;-70
2023/08/19 08:11:17;;;;;;;6.53;4.97;;;30.00;69.50;;;;;;5074707;28;20201;-72
2023/08/19 08:13:44;;;;;;;5.80;5.20;;;30.10;68.90;;;;;;5073907;28;20288;-71
2023/08/19 08:16:12;;;;;;;7.20;5.33;;;30.10;68.60;;;;;;5072860;28;20209;-72
2023/08/19 08:18:39;;;;;;;8.43;5.37;;;30.20;67.70;;;;;;5073470;28;20233;-71
2023/08/19 08:21:06;;;;;;;6.77;5.23;;;30.20;67.50;;;;;;5074339;28;20205;-71
2023/08/19 08:23:32;;;;;;;6.23;4.80;;;30.30;67.80;;;;;;5073028;28;20232;-70
2023/08/19 08:25:59;;;;;;;5.23;4.73;;;30.30;67.50;;;;;;5072858;28;20217;-71
2023/08/19 08:28:27;;;;;;;6.77;5.23;;;30.40;66.80;;;;;;5073341;28;20215;-70
2023/08/19 08:30:54;;;;;;;5.17;4.67;;;30.40;66.50;;;;;;5074406;28;20216;-73
2023/08/19 08:33:22;;;;;;;6.00;4.80;;;30.40;66.00;;;;;;5072727;28;20216;-72
2023/08/19 08:35:49;;;;;;;7.23;5.10;;;30.60;65.80;;;;;;5072881;28;20211;-71
2023/08/19 08:38:16;;;;;;;5.13;4.63;;;30.70;66.30;;;;;;5077696;28;20192;-72
2023/08/19 08:40:43;;;;;;;6.40;5.10;;;30.80;65.40;;;;;;5091859;28;20585;-72
2023/08/19 08:43:10;;;;;;;8.97;5.13;;;31.00;64.80;;;;;;5080602;28;20590;-70
2023/08/19 08:45:37;;;;;;;7.93;4.83;;;31.10;64.60;;;;;;5092892;28;20235;-71
2023/08/19 08:48:05;;;;;;;7.50;4.70;;;31.10;64.80;;;;;;5093038;28;20204;-72
2023/08/19 08:50:33;;;;;;;7.30;5.23;;;31.20;65.20;;;;;;5087700;28;20209;-72
2023/08/19 08:53:00;;;;;;;10.87;5.33;;;31.30;64.20;;;;;;5081472;28;20193;-71
2023/08/19 08:55:27;;;;;;;6.23;4.87;;;31.40;63.80;;;;;;5086009;28;20224;-73
2023/08/19 08:57:55;;;;;;;7.20;4.60;;;31.50;63.90;;;;;;5077666;28;20191;-71
2023/08/19 09:00:22;;;;;;;6.17;5.07;;;31.70;63.90;;;;;;5074040;28;20682;-72
2023/08/19 09:02:51;;;;;;;6.53;4.30;;;31.90;62.90;;;;;;5079169;28;20230;-71
2023/08/19 09:05:22;;;;;;;6.53;5.10;;;32.00;61.00;;;;;;5073908;28;20226;-72
2023/08/19 09:07:53;;;;;;;4.50;4.10;;;32.10;60.70;;;;;;5092368;28;20221;-72
2023/08/19 09:10:27;;;;;;;5.90;4.87;;;32.20;61.70;;;;;;5091135;28;20198;-73
2023/08/19 09:12:58;;;;;;;6.00;4.90;;;32.40;61.30;;;;;;5092390;28;20225;-72
2023/08/19 09:15:27;;;;;;;5.60;4.77;;;32.50;61.90;;;;;;5092349;28;20211;-72
2023/08/19 09:17:55;;;;;;;5.50;4.90;;;32.50;60.90;;;;;;5092318;28;20236;-71
2023/08/19 09:20:22;;;;;;;5.67;4.63;;;32.50;59.80;;;;;;5082419;28;20198;-71
2023/08/19 09:22:51;;;;;;;4.73;4.20;;;32.50;60.10;;;;;;5092318;28;20568;-71
2023/08/19 09:25:18;;;;;;;7.80;4.73;;;32.60;59.30;;;;;;5092296;28;20230;-71
2023/08/19 09:27:46;;;;;;;4.20;3.80;;;32.70;58.90;;;;;;5092474;28;20211;-70
2023/08/19 09:30:16;;;;;;;5.10;4.30;;;32.70;58.40;;;;;;5090778;28;20226;-70
2023/08/19 09:32:45;;;;;;;5.70;4.37;;;32.70;57.80;;;;;;5091706;28;20210;-71
2023/08/19 09:35:13;;;;;;;5.27;4.27;;;32.80;57.80;;;;;;5084883;28;20235;-71
2023/08/19 09:37:42;;;;;;;6.60;4.83;;;32.80;57.90;;;;;;5074558;28;20199;-71
2023/08/19 09:40:17;;;;;;;4.70;4.27;;;32.90;58.10;;;;;;5091071;28;20224;-71
2023/08/19 09:42:48;;;;;;;7.07;4.40;;;32.90;58.00;;;;;;5082429;28;20751;-71
2023/08/19 09:45:18;;;;;;;7.37;4.23;;;33.00;57.70;;;;;;5083479;28;20226;-71
2023/08/19 09:47:47;;;;;;;8.00;4.40;;;33.10;57.10;;;;;;5070648;28;20195;-71
2023/08/19 09:50:14;;;;;;;7.50;4.10;;;33.10;57.80;;;;;;5081059;28;20232;-72
2023/08/19 09:52:41;;;;;;;5.37;4.60;;;33.10;57.30;;;;;;5090911;28;20361;-71
2023/08/19 09:55:10;;;;;;;5.80;4.27;;;33.30;57.40;;;;;;5091168;28;20206;-70
2023/08/19 09:57:37;;;;;;;5.77;4.63;;;33.30;56.60;;;;;;5090517;28;20438;-71
2023/08/19 10:00:05;;;;;;;6.27;4.43;;;33.40;56.70;;;;;;5080741;28;20208;-71
2023/08/19 10:02:33;;;;;;;8.33;4.30;;;33.50;56.60;;;;;;5071367;28;20208;-73
2023/08/19 10:05:00;;;;;;;6.20;4.80;;;33.70;56.10;;;;;;5087347;28;20231;-71
2023/08/19 10:07:31;;;;;;;4.63;4.00;;;33.80;56.20;;;;;;5079464;28;20209;-72
2023/08/19 10:10:01;;;;;;;4.53;4.13;;;34.10;55.40;;;;;;5087579;28;20228;-72
2023/08/19 10:12:31;;;;;;;8.33;4.57;;;34.20;55.60;;;;;;5092477;28;20563;-70
2023/08/19 10:14:59;;;;;;;6.60;4.80;;;34.40;55.90;;;;;;5093020;28;20220;-72
2023/08/19 10:17:28;;;;;;;5.03;4.37;;;34.50;54.70;;;;;;5094127;28;20203;-73
2023/08/19 10:20:00;;;;;;;5.63;4.27;;;34.50;55.90;;;;;;5094783;28;20583;-71
2023/08/19 10:22:30;;;;;;;6.77;4.57;;;34.60;54.80;;;;;;5094552;28;20686;-71
2023/08/19 10:24:58;;;;;;;6.93;4.60;;;34.60;54.40;;;;;;5076863;28;20220;-72
2023/08/19 10:27:25;;;;;;;5.93;4.27;;;34.60;54.70;;;;;;5075605;28;20201;-72
2023/08/19 10:29:58;;;;;;;4.80;4.30;;;34.70;54.10;;;;;;5075153;28;20293;-71
2023/08/19 10:32:29;;;;;;;7.37;4.37;;;34.70;53.60;;;;;;5074145;28;20301;-71
2023/08/19 10:35:08;;;;;;;8.03;4.20;;;34.70;53.10;;;;;;5074557;28;20268;-71
2023/08/19 10:37:35;;;;;;;6.90;4.40;;;34.80;52.90;;;;;;5075024;28;20212;-73
2023/08/19 10:40:11;;;;;;;10.90;4.33;;;34.80;53.20;;;;;;5082858;28;20221;-73
2023/08/19 10:42:38;;;;;;;6.60;4.03;;;34.70;52.20;;;;;;5086930;28;20197;-72
2023/08/19 10:45:14;;;;;;;4.83;3.93;;;34.80;52.90;;;;;;5073345;28;20684;-70
2023/08/19 10:47:42;;;;;;;4.13;3.73;;;34.70;51.70;;;;;;5089949;28;20227;-73
2023/08/19 10:50:09;;;;;;;5.20;4.30;;;34.80;52.90;;;;;;5093098;28;20216;-72
2023/08/19 10:52:57;;;;;;;6.17;4.30;;;34.90;52.90;;;;;;5093618;28;20206;-72
2023/08/19 10:55:23;;;;;;;7.83;4.30;;;34.90;52.60;;;;;;5091697;28;20190;-73
2023/08/19 10:57:51;;;;;;;6.60;4.33;;;35.00;52.90;;;;;;5089246;28;20235;-72
2023/08/19 11:00:23;;;;;;;5.00;4.27;;;35.00;52.90;;;;;;5072572;28;20238;-72
2023/08/19 11:02:50;;;;;;;6.77;4.67;;;35.00;53.40;;;;;;5072114;28;20197;-71
2023/08/19 11:05:25;;;;;;;5.63;4.97;;;35.00;54.90;;;;;;5073479;28;20232;-71
2023/08/19 11:07:52;;;;;;;7.00;5.10;;;35.00;55.00;;;;;;5074384;28;20477;-71
2023/08/19 11:10:19;;;;;;;9.00;5.00;;;34.80;55.70;;;;;;5092555;28;20295;-71
2023/08/19 11:12:48;;;;;;;7.50;4.83;;;34.80;55.80;;;;;;5089069;28;20800;-72
2023/08/19 11:15:22;;;;;;;6.37;4.50;;;34.80;56.40;;;;;;5092236;28;20193;-72
2023/08/19 11:17:51;;;;;;;6.30;4.70;;;35.00;56.60;;;;;;5091841;28;20535;-69
2023/08/19 11:20:17;;;;;;;4.73;4.30;;;35.00;54.80;;;;;;5092698;28;20236;-70
2023/08/19 11:22:46;;;;;;;6.37;4.60;;;35.10;54.60;;;;;;5092788;28;20301;-71
2023/08/19 11:25:13;;;;;;;5.70;4.60;;;35.10;53.50;;;;;;5081994;28;20228;-71
2023/08/19 11:27:40;;;;;;;4.40;4.00;;;35.00;53.50;;;;;;5087736;28;20220;-71
2023/08/19 11:30:09;;;;;;;4.87;4.47;;;35.00;54.00;;;;;;5078543;28;20206;-71
2023/08/19 11:32:36;;;;;;;9.33;4.40;;;34.90;53.30;;;;;;5091084;28;20235;-72
2023/08/19 11:35:06;;;;;;;5.73;4.23;;;35.00;53.90;;;;;;5088655;28;20190;-71
2023/08/19 11:37:32;;;;;;;6.17;4.13;;;35.10;51.80;;;;;;5072984;28;20209;-71
2023/08/19 11:39:59;;;;;;;4.33;3.93;;;35.10;51.90;;;;;;5083496;28;20212;-73
2023/08/19 11:42:27;;;;;;;6.50;4.43;;;35.20;52.20;;;;;;5090954;28;20224;-73
2023/08/19 11:44:56;;;;;;;5.00;3.80;;;35.30;52.30;;;;;;5082208;28;20232;-71
2023/08/19 11:47:25;;;;;;;5.60;3.73;;;35.20;51.00;;;;;;5087238;28;20208;-71
2023/08/19 11:49:51;;;;;;;8.53;4.50;;;35.20;51.10;;;;;;5073122;28;20226;-72
2023/08/19 11:52:23;;;;;;;4.93;3.70;;;35.20;50.60;;;;;;5072644;28;20208;-71
2023/08/19 11:55:00;;;;;;;4.10;3.70;;;35.10;49.30;;;;;;5072905;28;20338;-73
2023/08/19 11:57:31;;;;;;;6.63;3.93;;;35.10;49.80;;;;;;5085034;28;20707;-72
2023/08/19 11:59:58;;;;;;;4.53;4.00;;;35.10;50.70;;;;;;5092426;28;20210;-71
2023/08/19 12:02:25;;;;;;;5.93;4.33;;;35.10;51.10;;;;;;5088337;28;20230;-71
2023/08/19 12:04:53;;;;;;;5.30;4.10;;;35.10;50.10;;;;;;5090909;28;20216;-72
2023/08/19 12:07:28;;;;;;;4.03;3.63;;;34.90;49.80;;;;;;5090432;28;20216;-72
2023/08/19 12:09:58;;;;;;;6.77;4.10;;;34.70;49.00;;;;;;5089016;28;20239;-72
2023/08/19 12:12:25;;;;;;;4.30;3.90;;;34.60;50.30;;;;;;5084791;28;20210;-72
2023/08/19 12:14:52;;;;;;;7.50;4.27;;;34.50;50.30;;;;;;5075235;28;20215;-72
2023/08/19 12:17:19;;;;;;;6.30;3.93;;;34.40;50.40;;;;;;5070171;28;20202;-71
2023/08/19 12:19:46;;;;;;;6.07;4.10;;;34.30;51.10;;;;;;5070271;28;20209;-72
2023/08/19 12:22:13;;;;;;;5.97;4.03;;;34.20;51.60;;;;;;5070074;28;20219;-71
2023/08/19 12:24:41;;;;;;;6.50;4.00;;;34.20;51.60;;;;;;5071133;28;20680;-73
2023/08/19 12:27:08;;;;;;;4.33;3.93;;;34.20;50.80;;;;;;5070050;28;20212;-70
2023/08/19 12:29:35;;;;;;;4.83;4.13;;;34.10;51.60;;;;;;5070268;28;20475;-71
2023/08/19 12:32:02;;;;;;;5.30;4.07;;;34.00;51.90;;;;;;5071159;28;20231;-71
2023/08/19 12:34:29;;;;;;;4.40;4.00;;;33.90;52.00;;;;;;5070938;28;20763;-71
2023/08/19 12:36:56;;;;;;;7.37;4.37;;;33.90;52.60;;;;;;5070241;28;20326;-71
2023/08/19 12:39:23;;;;;;;5.93;4.40;;;33.80;52.40;;;;;;5077992;28;20271;-70
2023/08/19 12:41:51;;;;;;;5.87;4.17;;;33.90;53.00;;;;;;5085546;28;20200;-72
2023/08/19 12:44:18;;;;;;;4.50;4.10;;;33.80;52.90;;;;;;5076257;28;20218;-71
2023/08/19 12:46:46;;;;;;;4.53;4.13;;;33.80;53.10;;;;;;5085063;28;20231;-72
2023/08/19 12:49:14;;;;;;;6.80;4.57;;;33.90;53.60;;;;;;5088899;28;20255;-71